Terminal Aerodrome Forecast
Issued by NWS

Home | Current Version | Previous Version | Text Only | Print | Product List | Glossary On
Versions: 1 2 3 4 5 6 7 8 9 10 11 12 13 14 15 16 17 18 19 20 21 22 23 24 25 26 27 28 29 30 31 32 33
000
FTUS43 KLOT 041720
TAFORD
TAF
KORD 041720Z 0418/0524 08004KT P6SM FEW015 SCT050
     FM042100 08008KT P6SM VCTS BKN040CB
     FM050200 10005KT P6SM SCT250
     FM050600 VRB03KT P6SM SKC
     FM051400 18006KT P6SM SCT040 PROB30 0520/0524 TSRA SCT040CB
      BKN060=

USA.gov is the U.S. government's official web portal to all federal, state and local government web resources and services.